sensor_id;sensor_type;location;lat;lon;timestamp;P1;durP1;ratioP1;P2;durP2;ratioP2
72639;SDS011;60683;51.730;8.762;2022-09-01T00:01:09;2.65;;;1.00;;
72639;SDS011;60683;51.730;8.762;2022-09-01T00:03:39;3.28;;;1.00;;
72639;SDS011;60683;51.730;8.762;2022-09-01T00:06:07;2.22;;;0.93;;
72639;SDS011;60683;51.730;8.762;2022-09-01T00:08:36;3.15;;;1.10;;
72639;SDS011;60683;51.730;8.762;2022-09-01T00:11:03;2.20;;;0.90;;
72639;SDS011;60683;51.730;8.762;2022-09-01T00:13:31;3.63;;;1.17;;
72639;SDS011;60683;51.730;8.762;2022-09-01T00:15:59;2.50;;;1.10;;
72639;SDS011;60683;51.730;8.762;2022-09-01T00:18:29;1.45;;;0.80;;
72639;SDS011;60683;51.730;8.762;2022-09-01T00:20:57;3.50;;;1.00;;
72639;SDS011;60683;51.730;8.762;2022-09-01T00:23:25;4.05;;;1.17;;
72639;SDS011;60683;51.730;8.762;2022-09-01T00:25:54;2.65;;;1.20;;
72639;SDS011;60683;51.730;8.762;2022-09-01T00:28:21;3.45;;;1.02;;
72639;SDS011;60683;51.730;8.762;2022-09-01T00:30:48;4.88;;;1.20;;
72639;SDS011;60683;51.730;8.762;2022-09-01T00:33:16;2.58;;;1.00;;
72639;SDS011;60683;51.730;8.762;2022-09-01T00:35:43;2.72;;;1.08;;
72639;SDS011;60683;51.730;8.762;2022-09-01T00:38:10;3.17;;;1.25;;
72639;SDS011;60683;51.730;8.762;2022-09-01T00:40:38;2.28;;;0.90;;
72639;SDS011;60683;51.730;8.762;2022-09-01T00:43:13;3.72;;;1.10;;
72639;SDS011;60683;51.730;8.762;2022-09-01T00:45:44;3.00;;;1.17;;
72639;SDS011;60683;51.730;8.762;2022-09-01T00:48:11;2.17;;;1.33;;
72639;SDS011;60683;51.730;8.762;2022-09-01T00:50:39;2.90;;;1.00;;
72639;SDS011;60683;51.730;8.762;2022-09-01T00:53:06;2.10;;;0.93;;
72639;SDS011;60683;51.730;8.762;2022-09-01T00:55:35;2.92;;;1.23;;
72639;SDS011;60683;51.730;8.762;2022-09-01T00:58:04;2.05;;;0.98;;
72639;SDS011;60683;51.730;8.762;2022-09-01T01:00:36;3.20;;;1.00;;
72639;SDS011;60683;51.730;8.762;2022-09-01T01:03:06;2.60;;;0.93;;
72639;SDS011;60683;51.730;8.762;2022-09-01T01:05:35;2.25;;;0.93;;
72639;SDS011;60683;51.730;8.762;2022-09-01T01:08:05;2.42;;;0.80;;
72639;SDS011;60683;51.730;8.762;2022-09-01T01:10:35;3.10;;;1.02;;
72639;SDS011;60683;51.730;8.762;2022-09-01T01:13:05;2.80;;;1.10;;
72639;SDS011;60683;51.730;8.762;2022-09-01T01:15:35;2.78;;;1.10;;
72639;SDS011;60683;51.730;8.762;2022-09-01T01:18:03;2.15;;;1.02;;
72639;SDS011;60683;51.730;8.762;2022-09-01T01:20:31;3.38;;;1.05;;
72639;SDS011;60683;51.730;8.762;2022-09-01T01:23:20;2.97;;;1.10;;
72639;SDS011;60683;51.730;8.762;2022-09-01T01:25:53;3.10;;;1.02;;
72639;SDS011;60683;51.730;8.762;2022-09-01T01:28:23;2.38;;;1.00;;
72639;SDS011;60683;51.730;8.762;2022-09-01T01:30:53;2.53;;;1.10;;
72639;SDS011;60683;51.730;8.762;2022-09-01T01:33:27;2.72;;;1.17;;
72639;SDS011;60683;51.730;8.762;2022-09-01T01:35:56;2.17;;;0.95;;
72639;SDS011;60683;51.730;8.762;2022-09-01T01:38:24;3.45;;;1.02;;
72639;SDS011;60683;51.730;8.762;2022-09-01T01:40:54;3.00;;;1.13;;
72639;SDS011;60683;51.730;8.762;2022-09-01T01:43:21;2.92;;;1.15;;
72639;SDS011;60683;51.730;8.762;2022-09-01T01:45:50;4.03;;;1.23;;
72639;SDS011;60683;51.730;8.762;2022-09-01T01:48:19;3.20;;;1.63;;
72639;SDS011;60683;51.730;8.762;2022-09-01T01:53:16;2.70;;;1.25;;
72639;SDS011;60683;51.730;8.762;2022-09-01T01:55:44;3.30;;;1.10;;
72639;SDS011;60683;51.730;8.762;2022-09-01T01:58:14;1.98;;;0.93;;
72639;SDS011;60683;51.730;8.762;2022-09-01T02:00:44;3.58;;;1.20;;
72639;SDS011;60683;51.730;8.762;2022-09-01T02:03:13;2.35;;;1.35;;
72639;SDS011;60683;51.730;8.762;2022-09-01T02:05:44;3.28;;;1.42;;
72639;SDS011;60683;51.730;8.762;2022-09-01T02:08:13;3.58;;;1.55;;
72639;SDS011;60683;51.730;8.762;2022-09-01T02:10:43;3.78;;;1.23;;
72639;SDS011;60683;51.730;8.762;2022-09-01T02:13:13;2.45;;;1.25;;
72639;SDS011;60683;51.730;8.762;2022-09-01T02:15:44;2.40;;;1.15;;
72639;SDS011;60683;51.730;8.762;2022-09-01T02:18:13;3.65;;;1.15;;
72639;SDS011;60683;51.730;8.762;2022-09-01T02:20:43;3.08;;;1.30;;
72639;SDS011;60683;51.730;8.762;2022-09-01T02:23:10;4.40;;;1.10;;
72639;SDS011;60683;51.730;8.762;2022-09-01T02:25:40;3.40;;;1.00;;
72639;SDS011;60683;51.730;8.762;2022-09-01T02:28:10;3.25;;;1.30;;
72639;SDS011;60683;51.730;8.762;2022-09-01T02:30:41;3.13;;;1.45;;
72639;SDS011;60683;51.730;8.762;2022-09-01T02:33:10;2.50;;;1.23;;
72639;SDS011;60683;51.730;8.762;2022-09-01T02:35:43;2.47;;;1.13;;
72639;SDS011;60683;51.730;8.762;2022-09-01T02:38:10;1.95;;;0.98;;
72639;SDS011;60683;51.730;8.762;2022-09-01T02:40:39;2.35;;;1.10;;
72639;SDS011;60683;51.730;8.762;2022-09-01T02:43:09;2.88;;;1.23;;
72639;SDS011;60683;51.730;8.762;2022-09-01T02:45:38;3.60;;;0.98;;
72639;SDS011;60683;51.730;8.762;2022-09-01T02:48:08;3.97;;;1.17;;
72639;SDS011;60683;51.730;8.762;2022-09-01T02:50:36;2.00;;;1.00;;
72639;SDS011;60683;51.730;8.762;2022-09-01T02:53:03;2.95;;;1.17;;
72639;SDS011;60683;51.730;8.762;2022-09-01T02:55:34;2.78;;;1.15;;
72639;SDS011;60683;51.730;8.762;2022-09-01T02:58:02;7.93;;;1.27;;
72639;SDS011;60683;51.730;8.762;2022-09-01T03:00:29;2.35;;;1.00;;
72639;SDS011;60683;51.730;8.762;2022-09-01T03:03:04;3.53;;;1.10;;
72639;SDS011;60683;51.730;8.762;2022-09-01T03:05:34;2.53;;;1.10;;
72639;SDS011;60683;51.730;8.762;2022-09-01T03:08:04;3.58;;;1.25;;
72639;SDS011;60683;51.730;8.762;2022-09-01T03:10:37;3.72;;;1.20;;
72639;SDS011;60683;51.730;8.762;2022-09-01T03:13:11;2.65;;;1.10;;
72639;SDS011;60683;51.730;8.762;2022-09-01T03:15:39;2.33;;;1.00;;
72639;SDS011;60683;51.730;8.762;2022-09-01T03:18:07;6.05;;;1.40;;
72639;SDS011;60683;51.730;8.762;2022-09-01T03:20:37;2.60;;;1.10;;
72639;SDS011;60683;51.730;8.762;2022-09-01T03:23:08;2.53;;;1.10;;
72639;SDS011;60683;51.730;8.762;2022-09-01T03:25:39;3.33;;;1.30;;
72639;SDS011;60683;51.730;8.762;2022-09-01T03:28:07;2.67;;;1.13;;
72639;SDS011;60683;51.730;8.762;2022-09-01T03:30:38;2.60;;;1.13;;
72639;SDS011;60683;51.730;8.762;2022-09-01T03:33:07;4.93;;;1.45;;
72639;SDS011;60683;51.730;8.762;2022-09-01T03:35:34;2.75;;;1.30;;
72639;SDS011;60683;51.730;8.762;2022-09-01T03:38:04;2.70;;;1.20;;
72639;SDS011;60683;51.730;8.762;2022-09-01T03:40:33;5.45;;;1.50;;
72639;SDS011;60683;51.730;8.762;2022-09-01T03:43:03;3.05;;;1.10;;
72639;SDS011;60683;51.730;8.762;2022-09-01T03:45:32;3.05;;;1.20;;
72639;SDS011;60683;51.730;8.762;2022-09-01T03:48:00;2.17;;;1.20;;
72639;SDS011;60683;51.730;8.762;2022-09-01T03:50:31;3.72;;;1.55;;
72639;SDS011;60683;51.730;8.762;2022-09-01T03:53:00;2.70;;;1.40;;
72639;SDS011;60683;51.730;8.762;2022-09-01T03:55:29;3.58;;;1.30;;
72639;SDS011;60683;51.730;8.762;2022-09-01T03:58:00;4.47;;;1.35;;
72639;SDS011;60683;51.730;8.762;2022-09-01T04:00:32;3.85;;;1.50;;
72639;SDS011;60683;51.730;8.762;2022-09-01T04:03:01;3.28;;;1.55;;
72639;SDS011;60683;51.730;8.762;2022-09-01T04:05:30;3.92;;;1.23;;
72639;SDS011;60683;51.730;8.762;2022-09-01T04:07:59;3.28;;;1.25;;
72639;SDS011;60683;51.730;8.762;2022-09-01T04:10:30;4.40;;;1.52;;
72639;SDS011;60683;51.730;8.762;2022-09-01T04:12:58;3.67;;;1.50;;
72639;SDS011;60683;51.730;8.762;2022-09-01T04:15:26;3.17;;;1.63;;
72639;SDS011;60683;51.730;8.762;2022-09-01T04:17:54;2.92;;;1.30;;
72639;SDS011;60683;51.730;8.762;2022-09-01T04:20:34;3.22;;;1.52;;
72639;SDS011;60683;51.730;8.762;2022-09-01T04:23:15;3.00;;;1.20;;
72639;SDS011;60683;51.730;8.762;2022-09-01T04:25:46;3.78;;;1.40;;
72639;SDS011;60683;51.730;8.762;2022-09-01T04:28:15;5.00;;;1.50;;
72639;SDS011;60683;51.730;8.762;2022-09-01T04:30:48;4.22;;;1.23;;
72639;SDS011;60683;51.730;8.762;2022-09-01T04:33:16;4.00;;;1.67;;
72639;SDS011;60683;51.730;8.762;2022-09-01T04:35:44;3.83;;;1.65;;
72639;SDS011;60683;51.730;8.762;2022-09-01T04:38:11;3.28;;;1.73;;
72639;SDS011;60683;51.730;8.762;2022-09-01T04:40:42;4.38;;;1.70;;
72639;SDS011;60683;51.730;8.762;2022-09-01T04:43:09;3.28;;;1.73;;
72639;SDS011;60683;51.730;8.762;2022-09-01T04:45:37;2.70;;;1.42;;
72639;SDS011;60683;51.730;8.762;2022-09-01T04:48:04;3.65;;;1.83;;
72639;SDS011;60683;51.730;8.762;2022-09-01T04:50:31;3.17;;;1.95;;
72639;SDS011;60683;51.730;8.762;2022-09-01T04:53:00;4.72;;;1.65;;
72639;SDS011;60683;51.730;8.762;2022-09-01T04:55:30;2.53;;;1.45;;
72639;SDS011;60683;51.730;8.762;2022-09-01T04:57:59;3.80;;;1.55;;
72639;SDS011;60683;51.730;8.762;2022-09-01T05:00:29;5.25;;;1.88;;
72639;SDS011;60683;51.730;8.762;2022-09-01T05:02:58;3.30;;;1.85;;
72639;SDS011;60683;51.730;8.762;2022-09-01T05:05:34;3.92;;;1.67;;
72639;SDS011;60683;51.730;8.762;2022-09-01T05:08:04;4.57;;;1.45;;
72639;SDS011;60683;51.730;8.762;2022-09-01T05:10:32;3.70;;;1.65;;
72639;SDS011;60683;51.730;8.762;2022-09-01T05:13:02;7.25;;;1.73;;
72639;SDS011;60683;51.730;8.762;2022-09-01T05:15:35;8.85;;;2.20;;
72639;SDS011;60683;51.730;8.762;2022-09-01T05:18:03;4.35;;;1.63;;
72639;SDS011;60683;51.730;8.762;2022-09-01T05:20:37;4.22;;;1.80;;
72639;SDS011;60683;51.730;8.762;2022-09-01T05:23:08;5.07;;;1.73;;
72639;SDS011;60683;51.730;8.762;2022-09-01T05:28:10;4.63;;;1.77;;
72639;SDS011;60683;51.730;8.762;2022-09-01T05:30:38;3.97;;;1.40;;
72639;SDS011;60683;51.730;8.762;2022-09-01T05:33:08;3.33;;;1.38;;
72639;SDS011;60683;51.730;8.762;2022-09-01T05:35:37;5.47;;;1.27;;
72639;SDS011;60683;51.730;8.762;2022-09-01T05:38:08;4.15;;;1.60;;
72639;SDS011;60683;51.730;8.762;2022-09-01T05:40:39;3.60;;;1.63;;
72639;SDS011;60683;51.730;8.762;2022-09-01T05:43:07;4.53;;;1.38;;
72639;SDS011;60683;51.730;8.762;2022-09-01T05:45:39;7.13;;;1.90;;
72639;SDS011;60683;51.730;8.762;2022-09-01T05:48:09;5.00;;;1.50;;
72639;SDS011;60683;51.730;8.762;2022-09-01T05:50:42;5.57;;;1.90;;
72639;SDS011;60683;51.730;8.762;2022-09-01T05:53:10;5.78;;;1.80;;
72639;SDS011;60683;51.730;8.762;2022-09-01T05:55:42;7.45;;;1.95;;
72639;SDS011;60683;51.730;8.762;2022-09-01T05:58:09;6.20;;;1.73;;
72639;SDS011;60683;51.730;8.762;2022-09-01T06:00:40;7.40;;;1.75;;
72639;SDS011;60683;51.730;8.762;2022-09-01T06:03:08;3.80;;;1.30;;
72639;SDS011;60683;51.730;8.762;2022-09-01T06:05:36;4.60;;;1.70;;
72639;SDS011;60683;51.730;8.762;2022-09-01T06:08:05;5.07;;;1.70;;
72639;SDS011;60683;51.730;8.762;2022-09-01T06:10:35;4.82;;;1.33;;
72639;SDS011;60683;51.730;8.762;2022-09-01T06:13:05;3.67;;;1.60;;
72639;SDS011;60683;51.730;8.762;2022-09-01T06:15:33;4.40;;;1.50;;
72639;SDS011;60683;51.730;8.762;2022-09-01T06:18:05;3.35;;;1.40;;
72639;SDS011;60683;51.730;8.762;2022-09-01T06:23:04;3.80;;;1.15;;
72639;SDS011;60683;51.730;8.762;2022-09-01T06:25:35;2.90;;;1.48;;
72639;SDS011;60683;51.730;8.762;2022-09-01T06:28:04;2.38;;;1.38;;
72639;SDS011;60683;51.730;8.762;2022-09-01T06:30:33;2.75;;;1.23;;
72639;SDS011;60683;51.730;8.762;2022-09-01T06:33:01;5.35;;;1.30;;
72639;SDS011;60683;51.730;8.762;2022-09-01T06:35:35;4.97;;;1.20;;
72639;SDS011;60683;51.730;8.762;2022-09-01T06:38:03;5.35;;;1.25;;
72639;SDS011;60683;51.730;8.762;2022-09-01T06:40:31;2.20;;;0.93;;
72639;SDS011;60683;51.730;8.762;2022-09-01T06:42:59;3.50;;;1.13;;
72639;SDS011;60683;51.730;8.762;2022-09-01T06:45:27;2.00;;;0.88;;
72639;SDS011;60683;51.730;8.762;2022-09-01T06:47:54;2.30;;;1.25;;
72639;SDS011;60683;51.730;8.762;2022-09-01T06:50:22;1.92;;;0.85;;
72639;SDS011;60683;51.730;8.762;2022-09-01T06:52:50;3.08;;;0.93;;
72639;SDS011;60683;51.730;8.762;2022-09-01T06:55:29;2.58;;;1.05;;
72639;SDS011;60683;51.730;8.762;2022-09-01T06:57:58;3.05;;;0.98;;
72639;SDS011;60683;51.730;8.762;2022-09-01T07:00:26;3.88;;;1.20;;
72639;SDS011;60683;51.730;8.762;2022-09-01T07:02:55;2.55;;;1.02;;
72639;SDS011;60683;51.730;8.762;2022-09-01T07:05:24;1.60;;;0.60;;
72639;SDS011;60683;51.730;8.762;2022-09-01T07:07:53;3.05;;;0.93;;
72639;SDS011;60683;51.730;8.762;2022-09-01T07:10:21;2.35;;;1.00;;
72639;SDS011;60683;51.730;8.762;2022-09-01T07:12:49;2.97;;;0.85;;
72639;SDS011;60683;51.730;8.762;2022-09-01T07:15:17;2.78;;;1.23;;
72639;SDS011;60683;51.730;8.762;2022-09-01T07:17:45;2.60;;;0.93;;
72639;SDS011;60683;51.730;8.762;2022-09-01T07:20:14;1.88;;;0.85;;
72639;SDS011;60683;51.730;8.762;2022-09-01T07:22:42;2.25;;;0.80;;
72639;SDS011;60683;51.730;8.762;2022-09-01T07:25:11;3.10;;;1.10;;
72639;SDS011;60683;51.730;8.762;2022-09-01T07:27:38;4.13;;;1.20;;
72639;SDS011;60683;51.730;8.762;2022-09-01T07:30:08;1.35;;;0.70;;
72639;SDS011;60683;51.730;8.762;2022-09-01T07:32:37;1.55;;;0.77;;
72639;SDS011;60683;51.730;8.762;2022-09-01T07:35:08;2.05;;;0.90;;
72639;SDS011;60683;51.730;8.762;2022-09-01T07:37:36;2.03;;;0.73;;
72639;SDS011;60683;51.730;8.762;2022-09-01T07:40:04;1.90;;;0.90;;
72639;SDS011;60683;51.730;8.762;2022-09-01T07:42:33;2.25;;;1.00;;
72639;SDS011;60683;51.730;8.762;2022-09-01T07:45:01;1.98;;;0.85;;
72639;SDS011;60683;51.730;8.762;2022-09-01T07:47:33;3.50;;;1.20;;
72639;SDS011;60683;51.730;8.762;2022-09-01T07:50:01;1.75;;;0.68;;
72639;SDS011;60683;51.730;8.762;2022-09-01T07:52:33;3.70;;;0.75;;
72639;SDS011;60683;51.730;8.762;2022-09-01T07:55:07;2.50;;;0.80;;
72639;SDS011;60683;51.730;8.762;2022-09-01T07:57:37;3.08;;;1.10;;
72639;SDS011;60683;51.730;8.762;2022-09-01T08:00:07;1.17;;;0.68;;
72639;SDS011;60683;51.730;8.762;2022-09-01T08:02:37;2.75;;;0.93;;
72639;SDS011;60683;51.730;8.762;2022-09-01T08:05:05;2.72;;;1.02;;
72639;SDS011;60683;51.730;8.762;2022-09-01T08:07:34;3.47;;;1.17;;
72639;SDS011;60683;51.730;8.762;2022-09-01T08:10:02;2.17;;;0.85;;
72639;SDS011;60683;51.730;8.762;2022-09-01T08:12:29;2.00;;;0.90;;
72639;SDS011;60683;51.730;8.762;2022-09-01T08:14:58;2.50;;;1.10;;
72639;SDS011;60683;51.730;8.762;2022-09-01T08:17:27;2.25;;;0.80;;
72639;SDS011;60683;51.730;8.762;2022-09-01T08:19:54;3.72;;;1.10;;
72639;SDS011;60683;51.730;8.762;2022-09-01T08:22:21;2.78;;;0.80;;
72639;SDS011;60683;51.730;8.762;2022-09-01T08:24:50;2.75;;;0.77;;
72639;SDS011;60683;51.730;8.762;2022-09-01T08:27:18;2.17;;;0.77;;
72639;SDS011;60683;51.730;8.762;2022-09-01T08:29:45;1.67;;;0.65;;
72639;SDS011;60683;51.730;8.762;2022-09-01T08:32:15;3.33;;;0.93;;
72639;SDS011;60683;51.730;8.762;2022-09-01T08:34:42;3.97;;;0.98;;
72639;SDS011;60683;51.730;8.762;2022-09-01T08:37:10;1.60;;;0.65;;
72639;SDS011;60683;51.730;8.762;2022-09-01T08:39:38;3.05;;;0.90;;
72639;SDS011;60683;51.730;8.762;2022-09-01T08:42:06;1.67;;;1.00;;
72639;SDS011;60683;51.730;8.762;2022-09-01T08:44:38;1.63;;;0.77;;
72639;SDS011;60683;51.730;8.762;2022-09-01T08:47:10;5.85;;;1.05;;
72639;SDS011;60683;51.730;8.762;2022-09-01T08:49:40;3.22;;;1.00;;
72639;SDS011;60683;51.730;8.762;2022-09-01T08:52:13;1.20;;;0.60;;
72639;SDS011;60683;51.730;8.762;2022-09-01T08:54:45;1.50;;;0.70;;
72639;SDS011;60683;51.730;8.762;2022-09-01T08:59:42;2.47;;;0.73;;
72639;SDS011;60683;51.730;8.762;2022-09-01T09:02:14;1.13;;;0.60;;
72639;SDS011;60683;51.730;8.762;2022-09-01T09:04:55;2.30;;;0.85;;
72639;SDS011;60683;51.730;8.762;2022-09-01T09:07:31;2.25;;;0.90;;
72639;SDS011;60683;51.730;8.762;2022-09-01T09:10:07;1.60;;;0.70;;
72639;SDS011;60683;51.730;8.762;2022-09-01T09:12:44;3.85;;;1.50;;
72639;SDS011;60683;51.730;8.762;2022-09-01T09:15:20;2.25;;;0.63;;
72639;SDS011;60683;51.730;8.762;2022-09-01T09:17:54;2.63;;;0.52;;
72639;SDS011;60683;51.730;8.762;2022-09-01T09:20:26;1.50;;;0.63;;
72639;SDS011;60683;51.730;8.762;2022-09-01T09:22:53;7.50;;;0.85;;
72639;SDS011;60683;51.730;8.762;2022-09-01T09:25:22;1.40;;;0.80;;
72639;SDS011;60683;51.730;8.762;2022-09-01T09:27:50;1.70;;;0.63;;
72639;SDS011;60683;51.730;8.762;2022-09-01T09:30:18;2.38;;;0.90;;
72639;SDS011;60683;51.730;8.762;2022-09-01T09:32:48;1.25;;;0.70;;
72639;SDS011;60683;51.730;8.762;2022-09-01T09:35:19;1.02;;;0.80;;
72639;SDS011;60683;51.730;8.762;2022-09-01T09:37:50;2.58;;;0.80;;
72639;SDS011;60683;51.730;8.762;2022-09-01T09:40:19;3.40;;;0.98;;
72639;SDS011;60683;51.730;8.762;2022-09-01T09:42:58;3.00;;;0.80;;
72639;SDS011;60683;51.730;8.762;2022-09-01T09:45:29;2.30;;;1.27;;
72639;SDS011;60683;51.730;8.762;2022-09-01T09:47:58;2.92;;;1.20;;
72639;SDS011;60683;51.730;8.762;2022-09-01T09:50:28;2.17;;;1.08;;
72639;SDS011;60683;51.730;8.762;2022-09-01T09:53:15;1.40;;;0.50;;
72639;SDS011;60683;51.730;8.762;2022-09-01T09:55:52;3.10;;;0.80;;
72639;SDS011;60683;51.730;8.762;2022-09-01T09:58:21;1.73;;;0.70;;
72639;SDS011;60683;51.730;8.762;2022-09-01T10:00:58;2.10;;;0.80;;
72639;SDS011;60683;51.730;8.762;2022-09-01T10:06:00;2.17;;;0.70;;
72639;SDS011;60683;51.730;8.762;2022-09-01T10:14:04;2.50;;;0.70;;
72639;SDS011;60683;51.730;8.762;2022-09-01T10:16:33;3.65;;;0.80;;
72639;SDS011;60683;51.730;8.762;2022-09-01T10:19:04;1.95;;;0.80;;
72639;SDS011;60683;51.730;8.762;2022-09-01T10:21:34;3.05;;;0.88;;
72639;SDS011;60683;51.730;8.762;2022-09-01T10:24:07;2.05;;;0.70;;
72639;SDS011;60683;51.730;8.762;2022-09-01T10:26:40;2.33;;;0.80;;
72639;SDS011;60683;51.730;8.762;2022-09-01T10:29:13;2.30;;;0.80;;
72639;SDS011;60683;51.730;8.762;2022-09-01T10:31:42;1.85;;;0.75;;
72639;SDS011;60683;51.730;8.762;2022-09-01T10:34:10;1.73;;;0.75;;
72639;SDS011;60683;51.730;8.762;2022-09-01T10:36:43;1.33;;;0.68;;
72639;SDS011;60683;51.730;8.762;2022-09-01T10:39:13;1.38;;;0.70;;
72639;SDS011;60683;51.730;8.762;2022-09-01T10:41:43;2.08;;;0.77;;
72639;SDS011;60683;51.730;8.762;2022-09-01T10:44:19;2.22;;;0.90;;
72639;SDS011;60683;51.730;8.762;2022-09-01T10:46:49;2.72;;;0.80;;
72639;SDS011;60683;51.730;8.762;2022-09-01T10:49:18;1.88;;;0.75;;
72639;SDS011;60683;51.730;8.762;2022-09-01T10:55:22;2.33;;;0.90;;
72639;SDS011;60683;51.730;8.762;2022-09-01T10:58:12;2.05;;;0.80;;
72639;SDS011;60683;51.730;8.762;2022-09-01T11:00:48;1.92;;;0.68;;
72639;SDS011;60683;51.730;8.762;2022-09-01T11:06:02;2.42;;;1.00;;
72639;SDS011;60683;51.730;8.762;2022-09-01T11:08:41;4.55;;;1.10;;
72639;SDS011;60683;51.730;8.762;2022-09-01T11:11:20;1.30;;;0.60;;
72639;SDS011;60683;51.730;8.762;2022-09-01T11:13:52;1.58;;;0.65;;
72639;SDS011;60683;51.730;8.762;2022-09-01T11:16:24;1.20;;;0.40;;
72639;SDS011;60683;51.730;8.762;2022-09-01T11:18:53;1.45;;;0.70;;
72639;SDS011;60683;51.730;8.762;2022-09-01T11:21:22;2.25;;;1.00;;
72639;SDS011;60683;51.730;8.762;2022-09-01T11:23:52;2.95;;;0.80;;
72639;SDS011;60683;51.730;8.762;2022-09-01T11:27:00;2.03;;;0.73;;
72639;SDS011;60683;51.730;8.762;2022-09-01T11:32:17;2.63;;;1.17;;
72639;SDS011;60683;51.730;8.762;2022-09-01T11:34:45;1.85;;;0.90;;
72639;SDS011;60683;51.730;8.762;2022-09-01T11:37:15;1.63;;;0.68;;
72639;SDS011;60683;51.730;8.762;2022-09-01T11:39:45;3.33;;;1.00;;
72639;SDS011;60683;51.730;8.762;2022-09-01T11:42:19;3.95;;;0.90;;
72639;SDS011;60683;51.730;8.762;2022-09-01T11:44:51;2.40;;;0.80;;
72639;SDS011;60683;51.730;8.762;2022-09-01T11:47:23;1.75;;;0.70;;
72639;SDS011;60683;51.730;8.762;2022-09-01T11:52:21;1.95;;;0.73;;
72639;SDS011;60683;51.730;8.762;2022-09-01T11:54:51;2.13;;;0.73;;
72639;SDS011;60683;51.730;8.762;2022-09-01T11:57:24;2.13;;;0.70;;
72639;SDS011;60683;51.730;8.762;2022-09-01T11:59:54;1.63;;;0.73;;
72639;SDS011;60683;51.730;8.762;2022-09-01T12:02:24;1.75;;;0.80;;
72639;SDS011;60683;51.730;8.762;2022-09-01T12:04:53;2.85;;;0.95;;
72639;SDS011;60683;51.730;8.762;2022-09-01T12:07:25;1.95;;;0.65;;
72639;SDS011;60683;51.730;8.762;2022-09-01T12:10:02;2.78;;;0.68;;
72639;SDS011;60683;51.730;8.762;2022-09-01T12:12:33;3.03;;;0.90;;
72639;SDS011;60683;51.730;8.762;2022-09-01T12:15:03;1.48;;;0.55;;
72639;SDS011;60683;51.730;8.762;2022-09-01T12:17:31;3.42;;;0.90;;
72639;SDS011;60683;51.730;8.762;2022-09-01T12:22:56;2.03;;;1.00;;
72639;SDS011;60683;51.730;8.762;2022-09-01T12:25:25;2.63;;;0.80;;
72639;SDS011;60683;51.730;8.762;2022-09-01T12:27:55;2.25;;;0.80;;
72639;SDS011;60683;51.730;8.762;2022-09-01T12:30:23;1.60;;;0.50;;
72639;SDS011;60683;51.730;8.762;2022-09-01T12:32:51;2.03;;;0.93;;
72639;SDS011;60683;51.730;8.762;2022-09-01T12:35:20;2.92;;;1.08;;
72639;SDS011;60683;51.730;8.762;2022-09-01T12:37:49;3.63;;;0.98;;
72639;SDS011;60683;51.730;8.762;2022-09-01T12:40:24;2.75;;;0.90;;
72639;SDS011;60683;51.730;8.762;2022-09-01T12:42:52;2.03;;;1.00;;
72639;SDS011;60683;51.730;8.762;2022-09-01T12:48:22;3.70;;;1.00;;
72639;SDS011;60683;51.730;8.762;2022-09-01T12:50:53;1.80;;;0.82;;
72639;SDS011;60683;51.730;8.762;2022-09-01T12:53:22;3.22;;;1.35;;
72639;SDS011;60683;51.730;8.762;2022-09-01T12:55:54;1.27;;;0.63;;
72639;SDS011;60683;51.730;8.762;2022-09-01T12:58:32;3.55;;;1.30;;
72639;SDS011;60683;51.730;8.762;2022-09-01T13:01:02;3.92;;;0.93;;
72639;SDS011;60683;51.730;8.762;2022-09-01T13:03:33;1.70;;;0.82;;
72639;SDS011;60683;51.730;8.762;2022-09-01T13:06:02;1.98;;;0.65;;
72639;SDS011;60683;51.730;8.762;2022-09-01T13:08:30;4.00;;;1.05;;
72639;SDS011;60683;51.730;8.762;2022-09-01T13:11:00;1.50;;;0.70;;
72639;SDS011;60683;51.730;8.762;2022-09-01T13:13:29;3.42;;;0.90;;
72639;SDS011;60683;51.730;8.762;2022-09-01T13:15:57;1.60;;;0.70;;
72639;SDS011;60683;51.730;8.762;2022-09-01T13:18:27;2.22;;;0.70;;
72639;SDS011;60683;51.730;8.762;2022-09-01T13:20:56;1.92;;;0.73;;
72639;SDS011;60683;51.730;8.762;2022-09-01T13:23:24;2.92;;;0.90;;
72639;SDS011;60683;51.730;8.762;2022-09-01T13:25:51;1.60;;;0.70;;
72639;SDS011;60683;51.730;8.762;2022-09-01T13:28:19;3.50;;;1.02;;
72639;SDS011;60683;51.730;8.762;2022-09-01T13:30:50;1.48;;;0.82;;
72639;SDS011;60683;51.730;8.762;2022-09-01T13:33:20;2.53;;;0.82;;
72639;SDS011;60683;51.730;8.762;2022-09-01T13:35:49;1.05;;;0.70;;
72639;SDS011;60683;51.730;8.762;2022-09-01T13:38:17;4.25;;;1.10;;
72639;SDS011;60683;51.730;8.762;2022-09-01T13:40:45;2.25;;;0.90;;
72639;SDS011;60683;51.730;8.762;2022-09-01T13:43:13;2.58;;;0.90;;
72639;SDS011;60683;51.730;8.762;2022-09-01T13:45:40;2.35;;;0.93;;
72639;SDS011;60683;51.730;8.762;2022-09-01T13:48:08;1.83;;;0.95;;
72639;SDS011;60683;51.730;8.762;2022-09-01T13:50:36;6.43;;;1.00;;
72639;SDS011;60683;51.730;8.762;2022-09-01T13:53:05;2.15;;;0.82;;
72639;SDS011;60683;51.730;8.762;2022-09-01T13:55:34;2.72;;;0.82;;
72639;SDS011;60683;51.730;8.762;2022-09-01T13:58:04;3.55;;;0.85;;
72639;SDS011;60683;51.730;8.762;2022-09-01T14:00:32;2.40;;;0.90;;
72639;SDS011;60683;51.730;8.762;2022-09-01T14:03:01;1.85;;;0.70;;
72639;SDS011;60683;51.730;8.762;2022-09-01T14:05:33;2.17;;;0.90;;
72639;SDS011;60683;51.730;8.762;2022-09-01T14:08:01;2.60;;;0.80;;
72639;SDS011;60683;51.730;8.762;2022-09-01T14:10:31;1.98;;;0.90;;
72639;SDS011;60683;51.730;8.762;2022-09-01T14:12:59;1.90;;;0.90;;
72639;SDS011;60683;51.730;8.762;2022-09-01T14:15:27;2.65;;;0.95;;
72639;SDS011;60683;51.730;8.762;2022-09-01T14:17:54;2.40;;;0.80;;
72639;SDS011;60683;51.730;8.762;2022-09-01T14:20:23;1.77;;;0.80;;
72639;SDS011;60683;51.730;8.762;2022-09-01T14:22:51;1.73;;;0.73;;
72639;SDS011;60683;51.730;8.762;2022-09-01T14:25:19;3.13;;;1.15;;
72639;SDS011;60683;51.730;8.762;2022-09-01T14:27:48;2.70;;;0.80;;
72639;SDS011;60683;51.730;8.762;2022-09-01T14:30:19;2.22;;;0.82;;
72639;SDS011;60683;51.730;8.762;2022-09-01T14:35:15;2.08;;;0.93;;
72639;SDS011;60683;51.730;8.762;2022-09-01T14:37:43;2.45;;;0.80;;
72639;SDS011;60683;51.730;8.762;2022-09-01T14:40:11;2.17;;;0.93;;
72639;SDS011;60683;51.730;8.762;2022-09-01T14:42:40;2.92;;;0.90;;
72639;SDS011;60683;51.730;8.762;2022-09-01T14:45:12;2.05;;;0.90;;
72639;SDS011;60683;51.730;8.762;2022-09-01T14:47:41;3.72;;;1.05;;
72639;SDS011;60683;51.730;8.762;2022-09-01T14:50:09;2.05;;;0.80;;
72639;SDS011;60683;51.730;8.762;2022-09-01T14:52:37;1.20;;;0.50;;
72639;SDS011;60683;51.730;8.762;2022-09-01T14:55:04;3.35;;;1.02;;
72639;SDS011;60683;51.730;8.762;2022-09-01T14:57:32;3.35;;;1.08;;
72639;SDS011;60683;51.730;8.762;2022-09-01T14:59:59;1.25;;;0.73;;
72639;SDS011;60683;51.730;8.762;2022-09-01T15:02:28;2.63;;;1.00;;
72639;SDS011;60683;51.730;8.762;2022-09-01T15:04:57;2.70;;;1.15;;
72639;SDS011;60683;51.730;8.762;2022-09-01T15:07:28;3.22;;;0.90;;
72639;SDS011;60683;51.730;8.762;2022-09-01T15:09:55;2.58;;;0.93;;
72639;SDS011;60683;51.730;8.762;2022-09-01T15:12:23;1.45;;;0.70;;
72639;SDS011;60683;51.730;8.762;2022-09-01T15:14:53;2.50;;;1.10;;
72639;SDS011;60683;51.730;8.762;2022-09-01T15:17:20;3.10;;;0.95;;
72639;SDS011;60683;51.730;8.762;2022-09-01T15:19:48;1.25;;;0.60;;
72639;SDS011;60683;51.730;8.762;2022-09-01T15:22:16;1.52;;;0.63;;
72639;SDS011;60683;51.730;8.762;2022-09-01T15:24:44;2.00;;;1.00;;
72639;SDS011;60683;51.730;8.762;2022-09-01T15:27:11;2.13;;;0.90;;
72639;SDS011;60683;51.730;8.762;2022-09-01T15:29:39;2.20;;;0.80;;
72639;SDS011;60683;51.730;8.762;2022-09-01T15:32:10;2.00;;;0.90;;
72639;SDS011;60683;51.730;8.762;2022-09-01T15:34:38;1.55;;;0.90;;
72639;SDS011;60683;51.730;8.762;2022-09-01T15:37:06;3.55;;;1.30;;
72639;SDS011;60683;51.730;8.762;2022-09-01T15:39:34;2.42;;;0.85;;
72639;SDS011;60683;51.730;8.762;2022-09-01T15:42:03;2.50;;;1.10;;